sensor_id;sensor_type;location;lat;lon;timestamp;temperature;humidity
79244;SHT31;68672;42.676;23.356;2023-08-06T00:00:27;21.16;72.74
79244;SHT31;68672;42.676;23.356;2023-08-06T00:02:53;21.17;72.44
79244;SHT31;68672;42.676;23.356;2023-08-06T00:05:18;21.16;72.95
79244;SHT31;68672;42.676;23.356;2023-08-06T00:07:49;21.16;73.39
79244;SHT31;68672;42.676;23.356;2023-08-06T00:10:15;21.14;73.36
79244;SHT31;68672;42.676;23.356;2023-08-06T00:12:41;21.14;73.56
79244;SHT31;68672;42.676;23.356;2023-08-06T00:15:07;21.11;73.41
79244;SHT31;68672;42.676;23.356;2023-08-06T00:17:34;21.14;73.56
79244;SHT31;68672;42.676;23.356;2023-08-06T00:19:59;21.16;73.07
79244;SHT31;68672;42.676;23.356;2023-08-06T00:22:31;21.16;72.79
79244;SHT31;68672;42.676;23.356;2023-08-06T00:24:57;21.13;73.31
79244;SHT31;68672;42.676;23.356;2023-08-06T00:27:23;21.19;73.53
79244;SHT31;68672;42.676;23.356;2023-08-06T00:29:48;21.20;73.57
79244;SHT31;68672;42.676;23.356;2023-08-06T00:32:17;21.19;73.42
79244;SHT31;68672;42.676;23.356;2023-08-06T00:34:42;21.16;73.66
79244;SHT31;68672;42.676;23.356;2023-08-06T00:37:10;21.19;73.72
79244;SHT31;68672;42.676;23.356;2023-08-06T00:39:36;21.23;73.72
79244;SHT31;68672;42.676;23.356;2023-08-06T00:42:01;21.20;73.83
79244;SHT31;68672;42.676;23.356;2023-08-06T00:44:27;21.23;73.73
79244;SHT31;68672;42.676;23.356;2023-08-06T00:46:52;21.22;73.85
79244;SHT31;68672;42.676;23.356;2023-08-06T00:49:20;21.22;73.74
79244;SHT31;68672;42.676;23.356;2023-08-06T00:51:47;21.22;73.98
79244;SHT31;68672;42.676;23.356;2023-08-06T00:54:12;21.22;74.32
79244;SHT31;68672;42.676;23.356;2023-08-06T00:56:41;21.17;74.09
79244;SHT31;68672;42.676;23.356;2023-08-06T00:59:07;21.20;73.68
79244;SHT31;68672;42.676;23.356;2023-08-06T01:01:37;21.19;73.48
79244;SHT31;68672;42.676;23.356;2023-08-06T01:04:02;21.22;73.03
79244;SHT31;68672;42.676;23.356;2023-08-06T01:09:30;21.23;73.18
79244;SHT31;68672;42.676;23.356;2023-08-06T01:15:22;21.24;72.91
79244;SHT31;68672;42.676;23.356;2023-08-06T01:17:48;21.16;72.96
79244;SHT31;68672;42.676;23.356;2023-08-06T01:20:14;21.20;72.65
79244;SHT31;68672;42.676;23.356;2023-08-06T01:22:45;21.20;72.54
79244;SHT31;68672;42.676;23.356;2023-08-06T01:25:19;21.22;72.97
79244;SHT31;68672;42.676;23.356;2023-08-06T01:27:48;21.20;73.33
79244;SHT31;68672;42.676;23.356;2023-08-06T01:30:25;21.16;73.82
79244;SHT31;68672;42.676;23.356;2023-08-06T01:32:59;21.14;73.62
79244;SHT31;68672;42.676;23.356;2023-08-06T01:35:27;21.13;73.68
79244;SHT31;68672;42.676;23.356;2023-08-06T01:37:53;21.11;74.00
79244;SHT31;68672;42.676;23.356;2023-08-06T01:40:19;21.08;74.15
79244;SHT31;68672;42.676;23.356;2023-08-06T01:42:44;21.19;73.88
79244;SHT31;68672;42.676;23.356;2023-08-06T01:45:10;21.22;73.90
79244;SHT31;68672;42.676;23.356;2023-08-06T01:47:36;21.17;74.34
79244;SHT31;68672;42.676;23.356;2023-08-06T01:50:01;21.16;74.44
79244;SHT31;68672;42.676;23.356;2023-08-06T01:52:27;21.16;74.57
79244;SHT31;68672;42.676;23.356;2023-08-06T01:54:53;21.10;74.53
79244;SHT31;68672;42.676;23.356;2023-08-06T01:57:18;21.10;74.23
79244;SHT31;68672;42.676;23.356;2023-08-06T01:59:44;21.08;73.91
79244;SHT31;68672;42.676;23.356;2023-08-06T02:02:09;21.04;73.87
79244;SHT31;68672;42.676;23.356;2023-08-06T02:04:37;21.02;74.29
79244;SHT31;68672;42.676;23.356;2023-08-06T02:07:02;21.03;74.09
79244;SHT31;68672;42.676;23.356;2023-08-06T02:09:28;21.00;74.11
79244;SHT31;68672;42.676;23.356;2023-08-06T02:11:53;21.06;73.89
79244;SHT31;68672;42.676;23.356;2023-08-06T02:14:19;21.10;74.16
79244;SHT31;68672;42.676;23.356;2023-08-06T02:16:44;21.03;74.50
79244;SHT31;68672;42.676;23.356;2023-08-06T02:19:09;21.04;74.28
79244;SHT31;68672;42.676;23.356;2023-08-06T02:21:38;21.02;74.45
79244;SHT31;68672;42.676;23.356;2023-08-06T02:24:03;21.00;74.42
79244;SHT31;68672;42.676;23.356;2023-08-06T02:26:29;20.96;74.60
79244;SHT31;68672;42.676;23.356;2023-08-06T02:28:54;20.96;74.39
79244;SHT31;68672;42.676;23.356;2023-08-06T02:31:20;20.93;74.57
79244;SHT31;68672;42.676;23.356;2023-08-06T02:33:45;20.92;74.42
79244;SHT31;68672;42.676;23.356;2023-08-06T02:36:10;20.86;75.12
79244;SHT31;68672;42.676;23.356;2023-08-06T02:38:36;20.83;75.74
79244;SHT31;68672;42.676;23.356;2023-08-06T02:41:05;20.79;76.49
79244;SHT31;68672;42.676;23.356;2023-08-06T02:43:31;20.79;76.22
79244;SHT31;68672;42.676;23.356;2023-08-06T02:45:57;20.76;76.17
79244;SHT31;68672;42.676;23.356;2023-08-06T02:48:26;20.72;76.44
79244;SHT31;68672;42.676;23.356;2023-08-06T02:50:51;20.76;76.55
79244;SHT31;68672;42.676;23.356;2023-08-06T02:53:16;20.79;76.51
79244;SHT31;68672;42.676;23.356;2023-08-06T02:55:46;20.85;76.38
79244;SHT31;68672;42.676;23.356;2023-08-06T02:58:15;20.83;76.31
79244;SHT31;68672;42.676;23.356;2023-08-06T03:00:41;20.87;76.91
79244;SHT31;68672;42.676;23.356;2023-08-06T03:03:07;20.83;76.98
79244;SHT31;68672;42.676;23.356;2023-08-06T03:05:32;20.85;76.99
79244;SHT31;68672;42.676;23.356;2023-08-06T03:07:58;20.90;76.75
79244;SHT31;68672;42.676;23.356;2023-08-06T03:10:26;20.94;76.55
79244;SHT31;68672;42.676;23.356;2023-08-06T03:12:51;20.96;76.62
79244;SHT31;68672;42.676;23.356;2023-08-06T03:15:17;21.00;76.41
79244;SHT31;68672;42.676;23.356;2023-08-06T03:17:42;21.03;76.51
79244;SHT31;68672;42.676;23.356;2023-08-06T03:20:12;20.93;76.57
79244;SHT31;68672;42.676;23.356;2023-08-06T03:22:37;20.93;76.26
79244;SHT31;68672;42.676;23.356;2023-08-06T03:25:03;20.93;76.41
79244;SHT31;68672;42.676;23.356;2023-08-06T03:27:28;20.87;76.30
79244;SHT31;68672;42.676;23.356;2023-08-06T03:29:54;20.86;76.38
79244;SHT31;68672;42.676;23.356;2023-08-06T03:32:20;20.82;76.57
79244;SHT31;68672;42.676;23.356;2023-08-06T03:34:45;20.80;76.61
79244;SHT31;68672;42.676;23.356;2023-08-06T03:37:11;20.79;76.70
79244;SHT31;68672;42.676;23.356;2023-08-06T03:39:36;20.79;77.38
79244;SHT31;68672;42.676;23.356;2023-08-06T03:42:02;20.85;77.80
79244;SHT31;68672;42.676;23.356;2023-08-06T03:44:27;20.90;77.47
79244;SHT31;68672;42.676;23.356;2023-08-06T03:46:56;20.96;77.60
79244;SHT31;68672;42.676;23.356;2023-08-06T03:49:21;20.94;77.88
79244;SHT31;68672;42.676;23.356;2023-08-06T03:51:49;20.94;77.43
79244;SHT31;68672;42.676;23.356;2023-08-06T03:54:17;20.94;77.28
79244;SHT31;68672;42.676;23.356;2023-08-06T03:56:43;20.99;77.22
79244;SHT31;68672;42.676;23.356;2023-08-06T03:59:08;20.94;77.14
79244;SHT31;68672;42.676;23.356;2023-08-06T04:01:34;20.90;77.10
79244;SHT31;68672;42.676;23.356;2023-08-06T04:03:59;20.96;77.06
79244;SHT31;68672;42.676;23.356;2023-08-06T04:06:27;21.00;77.31
79244;SHT31;68672;42.676;23.356;2023-08-06T04:08:53;21.02;77.31
79244;SHT31;68672;42.676;23.356;2023-08-06T04:11:18;21.03;76.69
79244;SHT31;68672;42.676;23.356;2023-08-06T04:13:44;21.02;76.57
79244;SHT31;68672;42.676;23.356;2023-08-06T04:16:09;21.00;76.39
79244;SHT31;68672;42.676;23.356;2023-08-06T04:18:39;21.02;76.19
79244;SHT31;68672;42.676;23.356;2023-08-06T04:21:05;21.11;76.67
79244;SHT31;68672;42.676;23.356;2023-08-06T04:23:30;21.11;76.99
79244;SHT31;68672;42.676;23.356;2023-08-06T04:25:57;21.13;77.10
79244;SHT31;68672;42.676;23.356;2023-08-06T04:28:22;21.14;77.13
79244;SHT31;68672;42.676;23.356;2023-08-06T04:30:53;21.14;77.27
79244;SHT31;68672;42.676;23.356;2023-08-06T04:33:20;21.14;77.20
79244;SHT31;68672;42.676;23.356;2023-08-06T04:35:45;21.16;77.05
79244;SHT31;68672;42.676;23.356;2023-08-06T04:38:11;21.22;77.11
79244;SHT31;68672;42.676;23.356;2023-08-06T04:40:36;21.20;77.17
79244;SHT31;68672;42.676;23.356;2023-08-06T04:43:02;21.20;76.93
79244;SHT31;68672;42.676;23.356;2023-08-06T04:45:30;21.20;77.01
79244;SHT31;68672;42.676;23.356;2023-08-06T04:47:55;21.23;76.77
79244;SHT31;68672;42.676;23.356;2023-08-06T04:50:20;21.27;76.72
79244;SHT31;68672;42.676;23.356;2023-08-06T04:52:46;21.31;76.90
79244;SHT31;68672;42.676;23.356;2023-08-06T04:55:11;21.31;76.95
79244;SHT31;68672;42.676;23.356;2023-08-06T04:57:37;21.34;76.56
79244;SHT31;68672;42.676;23.356;2023-08-06T05:00:03;21.33;76.58
79244;SHT31;68672;42.676;23.356;2023-08-06T05:02:29;21.38;76.62
79244;SHT31;68672;42.676;23.356;2023-08-06T05:04:57;21.41;76.26
79244;SHT31;68672;42.676;23.356;2023-08-06T05:07:25;21.43;76.29
79244;SHT31;68672;42.676;23.356;2023-08-06T05:09:51;21.44;76.17
79244;SHT31;68672;42.676;23.356;2023-08-06T05:12:16;21.44;76.26
79244;SHT31;68672;42.676;23.356;2023-08-06T05:15:00;21.48;76.21
79244;SHT31;68672;42.676;23.356;2023-08-06T05:17:25;21.48;76.04
79244;SHT31;68672;42.676;23.356;2023-08-06T05:19:53;21.53;75.35
79244;SHT31;68672;42.676;23.356;2023-08-06T05:22:22;21.58;75.17
79244;SHT31;68672;42.676;23.356;2023-08-06T05:24:47;21.64;75.09
79244;SHT31;68672;42.676;23.356;2023-08-06T05:27:13;21.66;75.43
79244;SHT31;68672;42.676;23.356;2023-08-06T05:29:38;21.69;75.51
79244;SHT31;68672;42.676;23.356;2023-08-06T05:32:04;21.69;75.56
79244;SHT31;68672;42.676;23.356;2023-08-06T05:34:29;21.82;75.43
79244;SHT31;68672;42.676;23.356;2023-08-06T05:37:04;21.91;74.95
79244;SHT31;68672;42.676;23.356;2023-08-06T05:39:30;21.96;74.59
79244;SHT31;68672;42.676;23.356;2023-08-06T05:41:55;21.99;74.45
79244;SHT31;68672;42.676;23.356;2023-08-06T05:44:21;22.06;74.74
79244;SHT31;68672;42.676;23.356;2023-08-06T05:46:47;22.09;74.17
79244;SHT31;68672;42.676;23.356;2023-08-06T05:49:12;22.08;74.18
79244;SHT31;68672;42.676;23.356;2023-08-06T05:51:39;22.17;74.07
79244;SHT31;68672;42.676;23.356;2023-08-06T05:54:04;22.22;74.54
79244;SHT31;68672;42.676;23.356;2023-08-06T05:56:30;22.26;74.17
79244;SHT31;68672;42.676;23.356;2023-08-06T05:58:55;22.33;74.39
79244;SHT31;68672;42.676;23.356;2023-08-06T06:01:24;22.32;73.69
79244;SHT31;68672;42.676;23.356;2023-08-06T06:03:49;22.33;72.54
79244;SHT31;68672;42.676;23.356;2023-08-06T06:06:14;22.29;72.29
79244;SHT31;68672;42.676;23.356;2023-08-06T06:08:41;22.33;71.75
79244;SHT31;68672;42.676;23.356;2023-08-06T06:11:06;22.32;70.98
79244;SHT31;68672;42.676;23.356;2023-08-06T06:13:32;22.26;70.24
79244;SHT31;68672;42.676;23.356;2023-08-06T06:15:57;22.24;70.28
79244;SHT31;68672;42.676;23.356;2023-08-06T06:18:22;22.19;70.09
79244;SHT31;68672;42.676;23.356;2023-08-06T06:20:48;22.22;70.75
79244;SHT31;68672;42.676;23.356;2023-08-06T06:23:13;22.30;71.16
79244;SHT31;68672;42.676;23.356;2023-08-06T06:25:49;22.32;71.18
79244;SHT31;68672;42.676;23.356;2023-08-06T06:28:14;22.36;71.40
79244;SHT31;68672;42.676;23.356;2023-08-06T06:30:41;22.40;70.04
79244;SHT31;68672;42.676;23.356;2023-08-06T06:33:07;22.40;68.23
79244;SHT31;68672;42.676;23.356;2023-08-06T06:35:32;22.42;68.32
79244;SHT31;68672;42.676;23.356;2023-08-06T06:38:00;22.37;68.53
79244;SHT31;68672;42.676;23.356;2023-08-06T06:40:29;22.36;68.81
79244;SHT31;68672;42.676;23.356;2023-08-06T06:42:54;22.36;67.81
79244;SHT31;68672;42.676;23.356;2023-08-06T06:45:20;22.32;67.03
79244;SHT31;68672;42.676;23.356;2023-08-06T06:47:45;22.35;67.73
79244;SHT31;68672;42.676;23.356;2023-08-06T06:50:11;22.37;67.29
79244;SHT31;68672;42.676;23.356;2023-08-06T06:52:37;22.47;66.89
79244;SHT31;68672;42.676;23.356;2023-08-06T06:55:03;22.52;66.74
79244;SHT31;68672;42.676;23.356;2023-08-06T06:57:29;22.59;66.55
79244;SHT31;68672;42.676;23.356;2023-08-06T06:59:58;22.61;67.58
79244;SHT31;68672;42.676;23.356;2023-08-06T07:02:23;22.64;66.39
79244;SHT31;68672;42.676;23.356;2023-08-06T07:04:50;22.71;65.76
79244;SHT31;68672;42.676;23.356;2023-08-06T07:07:15;22.77;65.70
79244;SHT31;68672;42.676;23.356;2023-08-06T07:09:41;22.88;66.09
79244;SHT31;68672;42.676;23.356;2023-08-06T07:12:06;22.97;66.23
79244;SHT31;68672;42.676;23.356;2023-08-06T07:14:32;23.01;65.19
79244;SHT31;68672;42.676;23.356;2023-08-06T07:16:57;23.08;65.09
79244;SHT31;68672;42.676;23.356;2023-08-06T07:19:23;23.08;65.64
79244;SHT31;68672;42.676;23.356;2023-08-06T07:21:48;23.05;64.96
79244;SHT31;68672;42.676;23.356;2023-08-06T07:24:14;23.00;63.57
79244;SHT31;68672;42.676;23.356;2023-08-06T07:26:39;22.94;63.06
79244;SHT31;68672;42.676;23.356;2023-08-06T07:29:11;22.88;62.39
79244;SHT31;68672;42.676;23.356;2023-08-06T07:31:46;22.91;62.14
79244;SHT31;68672;42.676;23.356;2023-08-06T07:34:11;22.94;60.57
79244;SHT31;68672;42.676;23.356;2023-08-06T07:36:37;23.00;60.18
79244;SHT31;68672;42.676;23.356;2023-08-06T07:39:06;23.10;60.38
79244;SHT31;68672;42.676;23.356;2023-08-06T07:41:31;23.21;60.00
79244;SHT31;68672;42.676;23.356;2023-08-06T07:43:59;23.38;59.63
79244;SHT31;68672;42.676;23.356;2023-08-06T07:46:25;23.46;59.63
79244;SHT31;68672;42.676;23.356;2023-08-06T07:48:50;23.63;59.86
79244;SHT31;68672;42.676;23.356;2023-08-06T07:51:16;23.67;57.81
79244;SHT31;68672;42.676;23.356;2023-08-06T07:53:41;23.76;57.78
79244;SHT31;68672;42.676;23.356;2023-08-06T07:56:06;23.84;57.26
79244;SHT31;68672;42.676;23.356;2023-08-06T07:58:32;23.89;57.31
79244;SHT31;68672;42.676;23.356;2023-08-06T08:00:57;23.99;56.59
79244;SHT31;68672;42.676;23.356;2023-08-06T08:03:23;24.09;55.83
79244;SHT31;68672;42.676;23.356;2023-08-06T08:05:48;24.18;56.20
79244;SHT31;68672;42.676;23.356;2023-08-06T08:08:14;24.30;55.83
79244;SHT31;68672;42.676;23.356;2023-08-06T08:10:40;24.47;55.71
79244;SHT31;68672;42.676;23.356;2023-08-06T08:13:08;24.64;56.48
79244;SHT31;68672;42.676;23.356;2023-08-06T08:15:35;24.75;56.91
79244;SHT31;68672;42.676;23.356;2023-08-06T08:18:00;24.71;56.70
79244;SHT31;68672;42.676;23.356;2023-08-06T08:20:26;24.75;56.14
79244;SHT31;68672;42.676;23.356;2023-08-06T08:22:57;24.82;56.82
79244;SHT31;68672;42.676;23.356;2023-08-06T08:25:22;24.79;55.67
79244;SHT31;68672;42.676;23.356;2023-08-06T08:27:48;24.89;54.92
79244;SHT31;68672;42.676;23.356;2023-08-06T08:30:13;24.99;54.68
79244;SHT31;68672;42.676;23.356;2023-08-06T08:32:38;25.08;55.11
79244;SHT31;68672;42.676;23.356;2023-08-06T08:35:04;25.08;55.31
79244;SHT31;68672;42.676;23.356;2023-08-06T08:37:29;25.20;54.37
79244;SHT31;68672;42.676;23.356;2023-08-06T08:39:55;25.36;53.62
79244;SHT31;68672;42.676;23.356;2023-08-06T08:42:21;25.48;52.80
79244;SHT31;68672;42.676;23.356;2023-08-06T08:44:46;25.57;52.68
79244;SHT31;68672;42.676;23.356;2023-08-06T08:47:12;25.68;52.28
79244;SHT31;68672;42.676;23.356;2023-08-06T08:49:38;25.82;52.35
79244;SHT31;68672;42.676;23.356;2023-08-06T08:52:04;25.98;52.33
79244;SHT31;68672;42.676;23.356;2023-08-06T08:54:38;26.06;51.98
79244;SHT31;68672;42.676;23.356;2023-08-06T08:57:04;26.01;51.37
79244;SHT31;68672;42.676;23.356;2023-08-06T08:59:29;26.02;51.02
79244;SHT31;68672;42.676;23.356;2023-08-06T09:01:55;26.09;50.46
79244;SHT31;68672;42.676;23.356;2023-08-06T09:04:22;26.11;50.52
79244;SHT31;68672;42.676;23.356;2023-08-06T09:06:50;26.21;50.78
79244;SHT31;68672;42.676;23.356;2023-08-06T09:09:28;26.29;51.46
79244;SHT31;68672;42.676;23.356;2023-08-06T09:12:00;26.33;50.78
79244;SHT31;68672;42.676;23.356;2023-08-06T09:14:27;26.28;51.16
79244;SHT31;68672;42.676;23.356;2023-08-06T09:16:52;26.19;50.63
79244;SHT31;68672;42.676;23.356;2023-08-06T09:19:18;26.11;51.08
79244;SHT31;68672;42.676;23.356;2023-08-06T09:21:45;26.16;51.47
79244;SHT31;68672;42.676;23.356;2023-08-06T09:24:14;26.19;49.89
79244;SHT31;68672;42.676;23.356;2023-08-06T09:26:41;26.28;49.51
79244;SHT31;68672;42.676;23.356;2023-08-06T09:29:08;26.32;50.12
79244;SHT31;68672;42.676;23.356;2023-08-06T09:31:52;26.32;49.65
79244;SHT31;68672;42.676;23.356;2023-08-06T09:34:21;26.39;49.74
79244;SHT31;68672;42.676;23.356;2023-08-06T09:36:51;26.53;49.88
79244;SHT31;68672;42.676;23.356;2023-08-06T09:39:18;26.64;49.07
79244;SHT31;68672;42.676;23.356;2023-08-06T09:41:45;26.79;48.75
79244;SHT31;68672;42.676;23.356;2023-08-06T09:44:20;26.98;48.30
79244;SHT31;68672;42.676;23.356;2023-08-06T09:46:48;26.96;46.54
79244;SHT31;68672;42.676;23.356;2023-08-06T09:49:14;27.04;46.34
79244;SHT31;68672;42.676;23.356;2023-08-06T09:51:39;27.12;46.75
79244;SHT31;68672;42.676;23.356;2023-08-06T09:54:06;27.18;46.19
79244;SHT31;68672;42.676;23.356;2023-08-06T09:56:34;27.25;46.12
79244;SHT31;68672;42.676;23.356;2023-08-06T09:59:04;27.24;46.48
79244;SHT31;68672;42.676;23.356;2023-08-06T10:01:33;27.21;45.37
79244;SHT31;68672;42.676;23.356;2023-08-06T10:04:00;27.12;44.43
79244;SHT31;68672;42.676;23.356;2023-08-06T10:06:29;26.98;43.75
79244;SHT31;68672;42.676;23.356;2023-08-06T10:08:55;26.79;44.01
79244;SHT31;68672;42.676;23.356;2023-08-06T10:11:24;26.60;44.64
79244;SHT31;68672;42.676;23.356;2023-08-06T10:13:57;26.49;45.21
79244;SHT31;68672;42.676;23.356;2023-08-06T10:16:23;26.45;45.14
79244;SHT31;68672;42.676;23.356;2023-08-06T10:18:50;26.38;45.10
79244;SHT31;68672;42.676;23.356;2023-08-06T10:21:16;26.35;45.36
79244;SHT31;68672;42.676;23.356;2023-08-06T10:23:41;26.26;45.37
79244;SHT31;68672;42.676;23.356;2023-08-06T10:26:07;26.47;45.03
79244;SHT31;68672;42.676;23.356;2023-08-06T10:28:37;26.63;45.18
79244;SHT31;68672;42.676;23.356;2023-08-06T10:31:03;26.82;45.29
79244;SHT31;68672;42.676;23.356;2023-08-06T10:33:47;26.98;45.27
79244;SHT31;68672;42.676;23.356;2023-08-06T10:36:14;27.01;45.25
79244;SHT31;68672;42.676;23.356;2023-08-06T10:38:47;26.96;45.42
79244;SHT31;68672;42.676;23.356;2023-08-06T10:41:22;26.87;45.43
79244;SHT31;68672;42.676;23.356;2023-08-06T10:43:48;26.82;45.87
79244;SHT31;68672;42.676;23.356;2023-08-06T10:46:27;26.69;46.32
79244;SHT31;68672;42.676;23.356;2023-08-06T10:48:52;26.56;45.98
79244;SHT31;68672;42.676;23.356;2023-08-06T10:51:18;26.47;46.58
79244;SHT31;68672;42.676;23.356;2023-08-06T10:53:51;26.42;46.84
79244;SHT31;68672;42.676;23.356;2023-08-06T10:56:17;26.36;46.83
79244;SHT31;68672;42.676;23.356;2023-08-06T10:58:44;26.31;46.47
79244;SHT31;68672;42.676;23.356;2023-08-06T11:01:10;26.22;47.18
79244;SHT31;68672;42.676;23.356;2023-08-06T11:03:37;26.16;47.04
79244;SHT31;68672;42.676;23.356;2023-08-06T11:06:03;26.05;47.34
79244;SHT31;68672;42.676;23.356;2023-08-06T11:08:34;26.01;47.66
79244;SHT31;68672;42.676;23.356;2023-08-06T11:11:13;26.09;47.55
79244;SHT31;68672;42.676;23.356;2023-08-06T11:13:40;26.19;47.75
79244;SHT31;68672;42.676;23.356;2023-08-06T11:16:06;26.32;47.54
79244;SHT31;68672;42.676;23.356;2023-08-06T11:18:32;26.60;47.63
79244;SHT31;68672;42.676;23.356;2023-08-06T11:21:01;26.77;46.55
79244;SHT31;68672;42.676;23.356;2023-08-06T11:23:28;26.90;46.21
79244;SHT31;68672;42.676;23.356;2023-08-06T11:25:54;26.88;46.70
79244;SHT31;68672;42.676;23.356;2023-08-06T11:28:20;26.76;47.86
79244;SHT31;68672;42.676;23.356;2023-08-06T11:30:49;26.57;48.26
79244;SHT31;68672;42.676;23.356;2023-08-06T11:33:20;26.32;48.90
79244;SHT31;68672;42.676;23.356;2023-08-06T11:35:47;26.08;50.95
79244;SHT31;68672;42.676;23.356;2023-08-06T11:38:13;25.80;52.43
79244;SHT31;68672;42.676;23.356;2023-08-06T11:40:39;25.57;54.04
79244;SHT31;68672;42.676;23.356;2023-08-06T11:43:05;25.37;55.68
79244;SHT31;68672;42.676;23.356;2023-08-06T11:45:31;25.29;56.16
79244;SHT31;68672;42.676;23.356;2023-08-06T11:47:56;25.80;55.33
79244;SHT31;68672;42.676;23.356;2023-08-06T11:50:27;25.67;54.93
79244;SHT31;68672;42.676;23.356;2023-08-06T11:53:01;25.47;55.77
79244;SHT31;68672;42.676;23.356;2023-08-06T11:55:28;25.44;55.34
79244;SHT31;68672;42.676;23.356;2023-08-06T11:57:57;25.30;55.96
79244;SHT31;68672;42.676;23.356;2023-08-06T12:00:24;25.81;55.07
79244;SHT31;68672;42.676;23.356;2023-08-06T12:02:50;26.11;54.98
79244;SHT31;68672;42.676;23.356;2023-08-06T12:05:20;26.39;53.93
79244;SHT31;68672;42.676;23.356;2023-08-06T12:07:54;26.63;52.32
79244;SHT31;68672;42.676;23.356;2023-08-06T12:10:21;26.84;49.30
79244;SHT31;68672;42.676;23.356;2023-08-06T12:12:54;27.07;48.49
79244;SHT31;68672;42.676;23.356;2023-08-06T12:15:19;27.21;48.25
79244;SHT31;68672;42.676;23.356;2023-08-06T12:17:45;27.39;47.85
79244;SHT31;68672;42.676;23.356;2023-08-06T12:20:11;27.62;46.94
79244;SHT31;68672;42.676;23.356;2023-08-06T12:22:37;27.75;47.86
79244;SHT31;68672;42.676;23.356;2023-08-06T12:25:07;27.78;44.32
79244;SHT31;68672;42.676;23.356;2023-08-06T12:27:36;27.72;44.08
79244;SHT31;68672;42.676;23.356;2023-08-06T12:30:02;27.70;44.07
79244;SHT31;68672;42.676;23.356;2023-08-06T12:32:29;27.65;44.34
79244;SHT31;68672;42.676;23.356;2023-08-06T12:34:54;27.56;44.56
79244;SHT31;68672;42.676;23.356;2023-08-06T12:37:20;27.46;44.13
79244;SHT31;68672;42.676;23.356;2023-08-06T12:39:45;27.35;44.18
79244;SHT31;68672;42.676;23.356;2023-08-06T12:42:10;27.23;44.13
79244;SHT31;68672;42.676;23.356;2023-08-06T12:44:39;27.14;44.44
79244;SHT31;68672;42.676;23.356;2023-08-06T12:47:04;27.07;44.30
79244;SHT31;68672;42.676;23.356;2023-08-06T12:49:30;27.03;44.70
79244;SHT31;68672;42.676;23.356;2023-08-06T12:51:56;27.04;44.62
79244;SHT31;68672;42.676;23.356;2023-08-06T12:54:28;27.03;44.64
79244;SHT31;68672;42.676;23.356;2023-08-06T12:56:53;27.00;44.67
79244;SHT31;68672;42.676;23.356;2023-08-06T12:59:19;27.01;44.59
79244;SHT31;68672;42.676;23.356;2023-08-06T13:01:44;27.03;44.41
79244;SHT31;68672;42.676;23.356;2023-08-06T13:04:10;27.06;44.44
79244;SHT31;68672;42.676;23.356;2023-08-06T13:06:36;27.10;44.87
79244;SHT31;68672;42.676;23.356;2023-08-06T13:09:03;27.12;44.44
79244;SHT31;68672;42.676;23.356;2023-08-06T13:11:30;27.18;45.00
79244;SHT31;68672;42.676;23.356;2023-08-06T13:13:59;27.24;45.40
79244;SHT31;68672;42.676;23.356;2023-08-06T13:16:24;27.21;44.59
79244;SHT31;68672;42.676;23.356;2023-08-06T13:18:49;27.21;45.37
79244;SHT31;68672;42.676;23.356;2023-08-06T13:21:15;27.25;44.43
79244;SHT31;68672;42.676;23.356;2023-08-06T13:23:40;27.25;43.64
79244;SHT31;68672;42.676;23.356;2023-08-06T13:26:06;27.15;43.86
79244;SHT31;68672;42.676;23.356;2023-08-06T13:28:31;27.11;43.60
79244;SHT31;68672;42.676;23.356;2023-08-06T13:30:57;27.10;43.80
79244;SHT31;68672;42.676;23.356;2023-08-06T13:33:31;27.06;44.23
79244;SHT31;68672;42.676;23.356;2023-08-06T13:35:56;27.04;44.61
79244;SHT31;68672;42.676;23.356;2023-08-06T13:38:22;27.04;44.56
79244;SHT31;68672;42.676;23.356;2023-08-06T13:40:47;27.04;44.63
79244;SHT31;68672;42.676;23.356;2023-08-06T13:43:13;26.98;45.00
79244;SHT31;68672;42.676;23.356;2023-08-06T13:45:38;26.91;44.76
79244;SHT31;68672;42.676;23.356;2023-08-06T13:48:04;26.94;44.30
79244;SHT31;68672;42.676;23.356;2023-08-06T13:50:29;26.94;44.54
79244;SHT31;68672;42.676;23.356;2023-08-06T13:52:55;26.90;44.38
79244;SHT31;68672;42.676;23.356;2023-08-06T13:55:30;26.93;44.31
79244;SHT31;68672;42.676;23.356;2023-08-06T13:57:56;27.00;44.55
79244;SHT31;68672;42.676;23.356;2023-08-06T14:00:21;27.08;44.79
79244;SHT31;68672;42.676;23.356;2023-08-06T14:02:50;27.15;44.36
79244;SHT31;68672;42.676;23.356;2023-08-06T14:05:15;27.21;45.28
79244;SHT31;68672;42.676;23.356;2023-08-06T14:07:40;27.27;44.67
79244;SHT31;68672;42.676;23.356;2023-08-06T14:10:06;27.33;43.85
79244;SHT31;68672;42.676;23.356;2023-08-06T14:12:34;27.39;43.59
79244;SHT31;68672;42.676;23.356;2023-08-06T14:14:59;27.45;43.52
79244;SHT31;68672;42.676;23.356;2023-08-06T14:17:25;27.46;43.11
79244;SHT31;68672;42.676;23.356;2023-08-06T14:19:53;27.56;43.49
79244;SHT31;68672;42.676;23.356;2023-08-06T14:22:19;27.61;42.93
79244;SHT31;68672;42.676;23.356;2023-08-06T14:24:44;27.62;42.95
79244;SHT31;68672;42.676;23.356;2023-08-06T14:27:12;27.63;43.13
79244;SHT31;68672;42.676;23.356;2023-08-06T14:29:37;27.63;43.33
79244;SHT31;68672;42.676;23.356;2023-08-06T14:32:03;27.65;43.28
79244;SHT31;68672;42.676;23.356;2023-08-06T14:34:28;27.70;43.23
79244;SHT31;68672;42.676;23.356;2023-08-06T14:36:57;27.73;43.45
79244;SHT31;68672;42.676;23.356;2023-08-06T14:39:24;27.72;43.33
79244;SHT31;68672;42.676;23.356;2023-08-06T14:41:49;27.73;42.69
79244;SHT31;68672;42.676;23.356;2023-08-06T14:44:17;27.69;42.54
79244;SHT31;68672;42.676;23.356;2023-08-06T14:46:44;27.67;42.81
79244;SHT31;68672;42.676;23.356;2023-08-06T14:49:10;27.65;43.03
79244;SHT31;68672;42.676;23.356;2023-08-06T14:51:36;27.59;42.95
79244;SHT31;68672;42.676;23.356;2023-08-06T14:54:01;27.59;42.79
79244;SHT31;68672;42.676;23.356;2023-08-06T14:56:27;27.61;42.51
79244;SHT31;68672;42.676;23.356;2023-08-06T14:58:55;27.62;42.72
79244;SHT31;68672;42.676;23.356;2023-08-06T15:01:20;27.63;43.46
79244;SHT31;68672;42.676;23.356;2023-08-06T15:03:48;27.65;43.23
79244;SHT31;68672;42.676;23.356;2023-08-06T15:06:15;27.66;43.24
79244;SHT31;68672;42.676;23.356;2023-08-06T15:08:41;27.75;43.29
79244;SHT31;68672;42.676;23.356;2023-08-06T15:11:09;27.72;42.79
79244;SHT31;68672;42.676;23.356;2023-08-06T15:13:34;27.73;42.63
79244;SHT31;68672;42.676;23.356;2023-08-06T15:16:00;27.73;42.86
79244;SHT31;68672;42.676;23.356;2023-08-06T15:18:25;27.78;43.17